sensor_id;sensor_type;location;lat;lon;timestamp;P1;durP1;ratioP1;P2;durP2;ratioP2
23163;SDS011;31429;42.674;23.350;2023-03-01T00:01:00;10.33;;;7.57;;
23163;SDS011;31429;42.674;23.350;2023-03-01T00:02:02;12.32;;;8.73;;
23163;SDS011;31429;42.674;23.350;2023-03-01T00:03:04;6.40;;;5.80;;
23163;SDS011;31429;42.674;23.350;2023-03-01T00:04:05;7.97;;;6.93;;
23163;SDS011;31429;42.674;23.350;2023-03-01T00:05:06;8.07;;;6.97;;
23163;SDS011;31429;42.674;23.350;2023-03-01T00:06:07;9.57;;;8.05;;
23163;SDS011;31429;42.674;23.350;2023-03-01T00:07:08;6.30;;;5.70;;
23163;SDS011;31429;42.674;23.350;2023-03-01T00:08:09;6.80;;;6.07;;
23163;SDS011;31429;42.674;23.350;2023-03-01T00:09:11;6.20;;;5.60;;
23163;SDS011;31429;42.674;23.350;2023-03-01T00:10:12;7.43;;;6.72;;
23163;SDS011;31429;42.674;23.350;2023-03-01T00:11:14;6.53;;;5.83;;
23163;SDS011;31429;42.674;23.350;2023-03-01T00:12:16;7.38;;;6.68;;
23163;SDS011;31429;42.674;23.350;2023-03-01T00:13:17;6.70;;;6.10;;
23163;SDS011;31429;42.674;23.350;2023-03-01T00:14:18;6.07;;;5.50;;
23163;SDS011;31429;42.674;23.350;2023-03-01T00:15:18;5.93;;;5.47;;
23163;SDS011;31429;42.674;23.350;2023-03-01T00:16:20;5.97;;;5.40;;
23163;SDS011;31429;42.674;23.350;2023-03-01T00:17:22;8.55;;;7.60;;
23163;SDS011;31429;42.674;23.350;2023-03-01T00:18:22;8.53;;;6.83;;
23163;SDS011;31429;42.674;23.350;2023-03-01T00:19:23;5.65;;;5.15;;
23163;SDS011;31429;42.674;23.350;2023-03-01T00:20:24;7.47;;;6.67;;
23163;SDS011;31429;42.674;23.350;2023-03-01T00:21:26;5.93;;;5.33;;
23163;SDS011;31429;42.674;23.350;2023-03-01T00:22:27;7.05;;;5.90;;
23163;SDS011;31429;42.674;23.350;2023-03-01T00:23:30;5.65;;;5.07;;
23163;SDS011;31429;42.674;23.350;2023-03-01T00:24:33;4.70;;;4.30;;
23163;SDS011;31429;42.674;23.350;2023-03-01T00:25:33;4.47;;;4.18;;
23163;SDS011;31429;42.674;23.350;2023-03-01T00:26:41;5.38;;;4.88;;
23163;SDS011;31429;42.674;23.350;2023-03-01T00:27:42;6.23;;;5.63;;
23163;SDS011;31429;42.674;23.350;2023-03-01T00:28:43;6.30;;;5.17;;
23163;SDS011;31429;42.674;23.350;2023-03-01T00:29:44;5.50;;;5.00;;
23163;SDS011;31429;42.674;23.350;2023-03-01T00:30:44;5.20;;;4.80;;
23163;SDS011;31429;42.674;23.350;2023-03-01T00:31:45;7.20;;;5.87;;
23163;SDS011;31429;42.674;23.350;2023-03-01T00:32:46;5.57;;;5.07;;
23163;SDS011;31429;42.674;23.350;2023-03-01T00:33:46;4.57;;;4.27;;
23163;SDS011;31429;42.674;23.350;2023-03-01T00:34:47;5.53;;;4.97;;
23163;SDS011;31429;42.674;23.350;2023-03-01T00:35:54;5.38;;;4.88;;
23163;SDS011;31429;42.674;23.350;2023-03-01T00:36:54;4.90;;;4.43;;
23163;SDS011;31429;42.674;23.350;2023-03-01T00:37:56;7.87;;;6.77;;
23163;SDS011;31429;42.674;23.350;2023-03-01T00:38:58;5.93;;;5.32;;
23163;SDS011;31429;42.674;23.350;2023-03-01T00:40:00;5.17;;;4.63;;
23163;SDS011;31429;42.674;23.350;2023-03-01T00:41:02;5.10;;;4.25;;
23163;SDS011;31429;42.674;23.350;2023-03-01T00:42:04;5.00;;;4.57;;
23163;SDS011;31429;42.674;23.350;2023-03-01T00:43:05;5.47;;;4.60;;
23163;SDS011;31429;42.674;23.350;2023-03-01T00:44:05;4.67;;;4.27;;
23163;SDS011;31429;42.674;23.350;2023-03-01T00:45:06;3.70;;;3.40;;
23163;SDS011;31429;42.674;23.350;2023-03-01T00:46:08;4.45;;;4.07;;
23163;SDS011;31429;42.674;23.350;2023-03-01T00:47:10;5.95;;;5.40;;
23163;SDS011;31429;42.674;23.350;2023-03-01T00:48:11;5.60;;;4.97;;
23163;SDS011;31429;42.674;23.350;2023-03-01T00:49:12;5.73;;;4.30;;
23163;SDS011;31429;42.674;23.350;2023-03-01T00:50:13;4.63;;;4.22;;
23163;SDS011;31429;42.674;23.350;2023-03-01T00:51:15;4.47;;;4.07;;
23163;SDS011;31429;42.674;23.350;2023-03-01T00:52:17;4.28;;;3.88;;
23163;SDS011;31429;42.674;23.350;2023-03-01T00:53:17;6.57;;;4.10;;
23163;SDS011;31429;42.674;23.350;2023-03-01T00:54:18;4.93;;;4.43;;
23163;SDS011;31429;42.674;23.350;2023-03-01T00:55:20;4.00;;;3.70;;
23163;SDS011;31429;42.674;23.350;2023-03-01T00:56:21;4.90;;;4.47;;
23163;SDS011;31429;42.674;23.350;2023-03-01T00:57:22;4.78;;;4.38;;
23163;SDS011;31429;42.674;23.350;2023-03-01T00:58:23;4.07;;;3.77;;
23163;SDS011;31429;42.674;23.350;2023-03-01T00:59:24;5.10;;;4.40;;
23163;SDS011;31429;42.674;23.350;2023-03-01T01:00:24;4.53;;;4.13;;
23163;SDS011;31429;42.674;23.350;2023-03-01T01:01:28;4.75;;;4.30;;
23163;SDS011;31429;42.674;23.350;2023-03-01T01:02:31;4.55;;;4.15;;
23163;SDS011;31429;42.674;23.350;2023-03-01T01:03:32;5.97;;;4.38;;
23163;SDS011;31429;42.674;23.350;2023-03-01T01:04:33;5.17;;;4.30;;
23163;SDS011;31429;42.674;23.350;2023-03-01T01:05:34;4.87;;;4.47;;
23163;SDS011;31429;42.674;23.350;2023-03-01T01:06:36;3.85;;;3.55;;
23163;SDS011;31429;42.674;23.350;2023-03-01T01:07:38;4.40;;;4.03;;
23163;SDS011;31429;42.674;23.350;2023-03-01T01:08:39;3.83;;;3.53;;
23163;SDS011;31429;42.674;23.350;2023-03-01T01:09:39;4.57;;;4.17;;
23163;SDS011;31429;42.674;23.350;2023-03-01T01:10:41;4.00;;;3.70;;
23163;SDS011;31429;42.674;23.350;2023-03-01T01:11:44;4.57;;;4.18;;
23163;SDS011;31429;42.674;23.350;2023-03-01T01:12:45;4.72;;;4.00;;
23163;SDS011;31429;42.674;23.350;2023-03-01T01:13:46;5.57;;;4.40;;
23163;SDS011;31429;42.674;23.350;2023-03-01T01:14:47;4.18;;;3.83;;
23163;SDS011;31429;42.674;23.350;2023-03-01T01:15:48;5.37;;;4.87;;
23163;SDS011;31429;42.674;23.350;2023-03-01T01:16:48;3.97;;;3.60;;
23163;SDS011;31429;42.674;23.350;2023-03-01T01:17:49;3.87;;;3.50;;
23163;SDS011;31429;42.674;23.350;2023-03-01T01:18:50;4.17;;;3.77;;
23163;SDS011;31429;42.674;23.350;2023-03-01T01:19:51;3.88;;;3.58;;
23163;SDS011;31429;42.674;23.350;2023-03-01T01:20:52;3.60;;;3.30;;
23163;SDS011;31429;42.674;23.350;2023-03-01T01:21:52;4.50;;;4.10;;
23163;SDS011;31429;42.674;23.350;2023-03-01T01:22:53;3.60;;;3.40;;
23163;SDS011;31429;42.674;23.350;2023-03-01T01:23:54;6.77;;;4.87;;
23163;SDS011;31429;42.674;23.350;2023-03-01T01:24:56;3.25;;;3.05;;
23163;SDS011;31429;42.674;23.350;2023-03-01T01:25:58;3.07;;;2.77;;
23163;SDS011;31429;42.674;23.350;2023-03-01T01:27:03;5.47;;;4.20;;
23163;SDS011;31429;42.674;23.350;2023-03-01T01:28:04;4.03;;;3.70;;
23163;SDS011;31429;42.674;23.350;2023-03-01T01:29:05;3.47;;;3.00;;
23163;SDS011;31429;42.674;23.350;2023-03-01T01:30:06;3.63;;;3.30;;
23163;SDS011;31429;42.674;23.350;2023-03-01T01:31:08;3.80;;;3.50;;
23163;SDS011;31429;42.674;23.350;2023-03-01T01:32:08;3.30;;;2.60;;
23163;SDS011;31429;42.674;23.350;2023-03-01T01:33:09;3.60;;;3.03;;
23163;SDS011;31429;42.674;23.350;2023-03-01T01:34:12;4.03;;;3.30;;
23163;SDS011;31429;42.674;23.350;2023-03-01T01:35:15;3.20;;;2.95;;
23163;SDS011;31429;42.674;23.350;2023-03-01T01:36:15;2.60;;;2.40;;
23163;SDS011;31429;42.674;23.350;2023-03-01T01:37:16;2.87;;;2.67;;
23163;SDS011;31429;42.674;23.350;2023-03-01T01:38:17;2.50;;;2.40;;
23163;SDS011;31429;42.674;23.350;2023-03-01T01:39:18;2.40;;;2.30;;
23163;SDS011;31429;42.674;23.350;2023-03-01T01:40:18;3.20;;;3.00;;
23163;SDS011;31429;42.674;23.350;2023-03-01T01:41:21;3.10;;;2.80;;
23163;SDS011;31429;42.674;23.350;2023-03-01T01:42:22;3.00;;;2.72;;
23163;SDS011;31429;42.674;23.350;2023-03-01T01:43:24;2.73;;;2.60;;
23163;SDS011;31429;42.674;23.350;2023-03-01T01:44:27;2.97;;;2.80;;
23163;SDS011;31429;42.674;23.350;2023-03-01T01:45:30;3.05;;;2.85;;
23163;SDS011;31429;42.674;23.350;2023-03-01T01:46:33;2.80;;;2.60;;
23163;SDS011;31429;42.674;23.350;2023-03-01T01:47:37;4.32;;;3.92;;
23163;SDS011;31429;42.674;23.350;2023-03-01T01:48:38;3.27;;;2.97;;
23163;SDS011;31429;42.674;23.350;2023-03-01T01:49:42;2.88;;;2.60;;
23163;SDS011;31429;42.674;23.350;2023-03-01T01:50:46;2.67;;;2.50;;
23163;SDS011;31429;42.674;23.350;2023-03-01T01:51:56;3.30;;;2.90;;
23163;SDS011;31429;42.674;23.350;2023-03-01T01:53:02;2.92;;;2.72;;
23163;SDS011;31429;42.674;23.350;2023-03-01T01:54:06;2.40;;;2.30;;
23163;SDS011;31429;42.674;23.350;2023-03-01T01:55:10;2.90;;;2.55;;
23163;SDS011;31429;42.674;23.350;2023-03-01T01:56:14;2.47;;;2.28;;
23163;SDS011;31429;42.674;23.350;2023-03-01T01:57:19;3.95;;;3.65;;
23163;SDS011;31429;42.674;23.350;2023-03-01T01:58:26;2.97;;;2.78;;
23163;SDS011;31429;42.674;23.350;2023-03-01T01:59:29;2.75;;;2.55;;
23163;SDS011;31429;42.674;23.350;2023-03-01T02:00:33;3.08;;;2.88;;
23163;SDS011;31429;42.674;23.350;2023-03-01T02:01:34;2.80;;;2.60;;
23163;SDS011;31429;42.674;23.350;2023-03-01T02:02:34;2.53;;;2.30;;
23163;SDS011;31429;42.674;23.350;2023-03-01T02:03:37;2.47;;;2.28;;
23163;SDS011;31429;42.674;23.350;2023-03-01T02:04:42;2.80;;;2.60;;
23163;SDS011;31429;42.674;23.350;2023-03-01T02:05:44;3.22;;;2.90;;
23163;SDS011;31429;42.674;23.350;2023-03-01T02:06:53;2.80;;;2.60;;
23163;SDS011;31429;42.674;23.350;2023-03-01T02:07:59;3.17;;;2.97;;
23163;SDS011;31429;42.674;23.350;2023-03-01T02:09:01;2.67;;;2.43;;
23163;SDS011;31429;42.674;23.350;2023-03-01T02:10:07;2.80;;;2.60;;
23163;SDS011;31429;42.674;23.350;2023-03-01T02:11:08;3.13;;;2.92;;
23163;SDS011;31429;42.674;23.350;2023-03-01T02:12:11;3.13;;;2.92;;
23163;SDS011;31429;42.674;23.350;2023-03-01T02:13:14;2.40;;;2.28;;
23163;SDS011;31429;42.674;23.350;2023-03-01T02:14:14;3.10;;;2.90;;
23163;SDS011;31429;42.674;23.350;2023-03-01T02:15:16;3.88;;;3.58;;
23163;SDS011;31429;42.674;23.350;2023-03-01T02:16:17;3.17;;;2.97;;
23163;SDS011;31429;42.674;23.350;2023-03-01T02:17:18;2.65;;;2.50;;
23163;SDS011;31429;42.674;23.350;2023-03-01T02:18:20;3.03;;;2.83;;
23163;SDS011;31429;42.674;23.350;2023-03-01T02:19:26;2.45;;;2.35;;
23163;SDS011;31429;42.674;23.350;2023-03-01T02:20:40;2.58;;;2.47;;
23163;SDS011;31429;42.674;23.350;2023-03-01T02:21:52;4.90;;;3.40;;
23163;SDS011;31429;42.674;23.350;2023-03-01T02:23:01;2.35;;;2.13;;
23163;SDS011;31429;42.674;23.350;2023-03-01T02:24:03;3.03;;;2.83;;
23163;SDS011;31429;42.674;23.350;2023-03-01T02:25:12;2.80;;;2.70;;
23163;SDS011;31429;42.674;23.350;2023-03-01T02:26:27;4.47;;;4.07;;
23163;SDS011;31429;42.674;23.350;2023-03-01T02:27:36;3.47;;;3.17;;
23163;SDS011;31429;42.674;23.350;2023-03-01T02:28:47;2.50;;;2.40;;
23163;SDS011;31429;42.674;23.350;2023-03-01T02:29:47;3.20;;;2.97;;
23163;SDS011;31429;42.674;23.350;2023-03-01T02:30:49;3.03;;;2.83;;
23163;SDS011;31429;42.674;23.350;2023-03-01T02:32:13;4.47;;;4.07;;
23163;SDS011;31429;42.674;23.350;2023-03-01T02:33:15;6.07;;;5.30;;
23163;SDS011;31429;42.674;23.350;2023-03-01T02:34:17;3.37;;;3.17;;
23163;SDS011;31429;42.674;23.350;2023-03-01T02:35:22;3.40;;;3.20;;
23163;SDS011;31429;42.674;23.350;2023-03-01T02:36:24;3.00;;;2.80;;
23163;SDS011;31429;42.674;23.350;2023-03-01T02:37:28;3.00;;;2.80;;
23163;SDS011;31429;42.674;23.350;2023-03-01T02:38:29;3.20;;;3.00;;
23163;SDS011;31429;42.674;23.350;2023-03-01T02:39:31;3.13;;;2.92;;
23163;SDS011;31429;42.674;23.350;2023-03-01T02:40:37;2.70;;;2.50;;
23163;SDS011;31429;42.674;23.350;2023-03-01T02:41:41;3.20;;;3.00;;
23163;SDS011;31429;42.674;23.350;2023-03-01T02:42:46;3.00;;;2.80;;
23163;SDS011;31429;42.674;23.350;2023-03-01T02:43:51;3.15;;;2.95;;
23163;SDS011;31429;42.674;23.350;2023-03-01T02:44:52;4.78;;;4.28;;
23163;SDS011;31429;42.674;23.350;2023-03-01T02:45:56;3.97;;;3.67;;
23163;SDS011;31429;42.674;23.350;2023-03-01T02:46:58;4.15;;;3.85;;
23163;SDS011;31429;42.674;23.350;2023-03-01T02:48:02;3.15;;;2.95;;
23163;SDS011;31429;42.674;23.350;2023-03-01T02:49:16;4.00;;;3.70;;
23163;SDS011;31429;42.674;23.350;2023-03-01T02:50:22;5.00;;;4.28;;
23163;SDS011;31429;42.674;23.350;2023-03-01T02:51:44;5.03;;;4.57;;
23163;SDS011;31429;42.674;23.350;2023-03-01T02:52:54;3.97;;;3.60;;
23163;SDS011;31429;42.674;23.350;2023-03-01T02:54:03;3.17;;;2.97;;
23163;SDS011;31429;42.674;23.350;2023-03-01T02:55:11;3.97;;;3.30;;
23163;SDS011;31429;42.674;23.350;2023-03-01T02:56:14;4.07;;;3.20;;
23163;SDS011;31429;42.674;23.350;2023-03-01T02:57:15;3.97;;;3.13;;
23163;SDS011;31429;42.674;23.350;2023-03-01T02:58:16;3.15;;;2.95;;
23163;SDS011;31429;42.674;23.350;2023-03-01T02:59:19;4.63;;;4.17;;
23163;SDS011;31429;42.674;23.350;2023-03-01T03:00:23;3.42;;;3.13;;
23163;SDS011;31429;42.674;23.350;2023-03-01T03:01:26;3.25;;;3.05;;
23163;SDS011;31429;42.674;23.350;2023-03-01T03:02:36;3.00;;;2.80;;
23163;SDS011;31429;42.674;23.350;2023-03-01T03:03:37;3.27;;;3.07;;
23163;SDS011;31429;42.674;23.350;2023-03-01T03:04:37;3.27;;;3.07;;
23163;SDS011;31429;42.674;23.350;2023-03-01T03:05:38;5.20;;;4.20;;
23163;SDS011;31429;42.674;23.350;2023-03-01T03:06:39;4.73;;;4.07;;
23163;SDS011;31429;42.674;23.350;2023-03-01T03:07:41;3.90;;;3.50;;
23163;SDS011;31429;42.674;23.350;2023-03-01T03:08:42;2.97;;;2.78;;
23163;SDS011;31429;42.674;23.350;2023-03-01T03:09:44;3.35;;;3.05;;
23163;SDS011;31429;42.674;23.350;2023-03-01T03:10:44;3.57;;;3.30;;
23163;SDS011;31429;42.674;23.350;2023-03-01T03:11:45;3.77;;;3.47;;
23163;SDS011;31429;42.674;23.350;2023-03-01T03:12:49;4.60;;;4.00;;
23163;SDS011;31429;42.674;23.350;2023-03-01T03:13:50;4.20;;;3.85;;
23163;SDS011;31429;42.674;23.350;2023-03-01T03:14:53;3.95;;;3.65;;
23163;SDS011;31429;42.674;23.350;2023-03-01T03:15:54;4.32;;;3.92;;
23163;SDS011;31429;42.674;23.350;2023-03-01T03:16:55;5.88;;;4.80;;
23163;SDS011;31429;42.674;23.350;2023-03-01T03:17:56;4.30;;;3.90;;
23163;SDS011;31429;42.674;23.350;2023-03-01T03:18:58;4.18;;;3.80;;
23163;SDS011;31429;42.674;23.350;2023-03-01T03:20:05;4.40;;;4.10;;
23163;SDS011;31429;42.674;23.350;2023-03-01T03:21:11;4.13;;;3.83;;
23163;SDS011;31429;42.674;23.350;2023-03-01T03:22:12;4.30;;;3.90;;
23163;SDS011;31429;42.674;23.350;2023-03-01T03:23:13;4.35;;;4.05;;
23163;SDS011;31429;42.674;23.350;2023-03-01T03:24:14;4.77;;;4.37;;
23163;SDS011;31429;42.674;23.350;2023-03-01T03:25:15;5.10;;;4.70;;
23163;SDS011;31429;42.674;23.350;2023-03-01T03:26:16;4.75;;;4.35;;
23163;SDS011;31429;42.674;23.350;2023-03-01T03:27:16;4.50;;;4.20;;
23163;SDS011;31429;42.674;23.350;2023-03-01T03:28:17;4.23;;;3.90;;
23163;SDS011;31429;42.674;23.350;2023-03-01T03:29:18;4.07;;;3.77;;
23163;SDS011;31429;42.674;23.350;2023-03-01T03:30:20;4.23;;;3.93;;
23163;SDS011;31429;42.674;23.350;2023-03-01T03:31:21;5.07;;;4.57;;
23163;SDS011;31429;42.674;23.350;2023-03-01T03:32:22;4.63;;;4.23;;
23163;SDS011;31429;42.674;23.350;2023-03-01T03:33:23;4.90;;;4.40;;
23163;SDS011;31429;42.674;23.350;2023-03-01T03:34:24;4.63;;;4.23;;
23163;SDS011;31429;42.674;23.350;2023-03-01T03:35:25;5.03;;;4.53;;
23163;SDS011;31429;42.674;23.350;2023-03-01T03:36:30;5.30;;;4.80;;
23163;SDS011;31429;42.674;23.350;2023-03-01T03:37:30;5.87;;;5.17;;
23163;SDS011;31429;42.674;23.350;2023-03-01T03:38:49;5.72;;;4.90;;
23163;SDS011;31429;42.674;23.350;2023-03-01T03:39:50;5.70;;;4.93;;
23163;SDS011;31429;42.674;23.350;2023-03-01T03:40:59;6.40;;;4.65;;
23163;SDS011;31429;42.674;23.350;2023-03-01T03:42:02;5.82;;;4.13;;
23163;SDS011;31429;42.674;23.350;2023-03-01T03:43:03;5.17;;;4.60;;
23163;SDS011;31429;42.674;23.350;2023-03-01T03:44:05;5.65;;;5.15;;
23163;SDS011;31429;42.674;23.350;2023-03-01T03:45:07;4.80;;;4.30;;
23163;SDS011;31429;42.674;23.350;2023-03-01T03:46:09;5.38;;;4.88;;
23163;SDS011;31429;42.674;23.350;2023-03-01T03:47:11;4.60;;;4.15;;
23163;SDS011;31429;42.674;23.350;2023-03-01T03:48:11;5.60;;;5.07;;
23163;SDS011;31429;42.674;23.350;2023-03-01T03:49:12;5.27;;;4.77;;
23163;SDS011;31429;42.674;23.350;2023-03-01T03:50:14;5.20;;;4.70;;
23163;SDS011;31429;42.674;23.350;2023-03-01T03:51:17;5.38;;;4.88;;
23163;SDS011;31429;42.674;23.350;2023-03-01T03:52:18;5.40;;;4.93;;
23163;SDS011;31429;42.674;23.350;2023-03-01T03:53:19;5.00;;;4.40;;
23163;SDS011;31429;42.674;23.350;2023-03-01T03:54:21;5.57;;;4.80;;
23163;SDS011;31429;42.674;23.350;2023-03-01T03:55:22;4.70;;;4.23;;
23163;SDS011;31429;42.674;23.350;2023-03-01T03:56:22;5.80;;;4.10;;
23163;SDS011;31429;42.674;23.350;2023-03-01T03:57:25;4.32;;;4.03;;
23163;SDS011;31429;42.674;23.350;2023-03-01T03:58:26;4.17;;;3.70;;
23163;SDS011;31429;42.674;23.350;2023-03-01T03:59:27;4.80;;;4.40;;
23163;SDS011;31429;42.674;23.350;2023-03-01T04:00:28;4.00;;;3.70;;
23163;SDS011;31429;42.674;23.350;2023-03-01T04:01:30;4.67;;;4.27;;
23163;SDS011;31429;42.674;23.350;2023-03-01T04:02:31;4.50;;;4.20;;
23163;SDS011;31429;42.674;23.350;2023-03-01T04:03:31;5.13;;;4.73;;
23163;SDS011;31429;42.674;23.350;2023-03-01T04:04:33;4.30;;;4.00;;
23163;SDS011;31429;42.674;23.350;2023-03-01T04:05:34;4.63;;;4.23;;
23163;SDS011;31429;42.674;23.350;2023-03-01T04:06:35;3.90;;;3.50;;
23163;SDS011;31429;42.674;23.350;2023-03-01T04:07:36;4.43;;;4.03;;
23163;SDS011;31429;42.674;23.350;2023-03-01T04:08:37;4.20;;;3.90;;
23163;SDS011;31429;42.674;23.350;2023-03-01T04:09:38;4.17;;;3.73;;
23163;SDS011;31429;42.674;23.350;2023-03-01T04:10:40;4.53;;;4.17;;
23163;SDS011;31429;42.674;23.350;2023-03-01T04:11:42;4.60;;;4.10;;
23163;SDS011;31429;42.674;23.350;2023-03-01T04:12:43;4.30;;;3.90;;
23163;SDS011;31429;42.674;23.350;2023-03-01T04:13:44;5.20;;;4.70;;
23163;SDS011;31429;42.674;23.350;2023-03-01T04:14:44;4.30;;;3.90;;
23163;SDS011;31429;42.674;23.350;2023-03-01T04:15:45;4.13;;;3.73;;
23163;SDS011;31429;42.674;23.350;2023-03-01T04:16:47;5.40;;;4.90;;
23163;SDS011;31429;42.674;23.350;2023-03-01T04:17:48;4.63;;;4.22;;
23163;SDS011;31429;42.674;23.350;2023-03-01T04:18:49;4.37;;;3.97;;
23163;SDS011;31429;42.674;23.350;2023-03-01T04:19:49;4.20;;;3.90;;
23163;SDS011;31429;42.674;23.350;2023-03-01T04:20:50;6.43;;;4.00;;
23163;SDS011;31429;42.674;23.350;2023-03-01T04:21:52;4.63;;;4.03;;
23163;SDS011;31429;42.674;23.350;2023-03-01T04:22:56;4.17;;;3.87;;
23163;SDS011;31429;42.674;23.350;2023-03-01T04:23:57;4.65;;;4.25;;
23163;SDS011;31429;42.674;23.350;2023-03-01T04:24:58;3.70;;;3.40;;
23163;SDS011;31429;42.674;23.350;2023-03-01T04:26:02;4.20;;;3.90;;
23163;SDS011;31429;42.674;23.350;2023-03-01T04:27:02;6.77;;;4.10;;
23163;SDS011;31429;42.674;23.350;2023-03-01T04:28:03;12.30;;;3.83;;
23163;SDS011;31429;42.674;23.350;2023-03-01T04:29:04;4.73;;;3.40;;
23163;SDS011;31429;42.674;23.350;2023-03-01T04:30:05;4.47;;;4.10;;
23163;SDS011;31429;42.674;23.350;2023-03-01T04:31:07;6.53;;;4.28;;
23163;SDS011;31429;42.674;23.350;2023-03-01T04:32:14;4.53;;;4.13;;
23163;SDS011;31429;42.674;23.350;2023-03-01T04:33:16;45.33;;;6.38;;
23163;SDS011;31429;42.674;23.350;2023-03-01T04:34:17;5.00;;;4.03;;
23163;SDS011;31429;42.674;23.350;2023-03-01T04:35:17;4.87;;;3.40;;
23163;SDS011;31429;42.674;23.350;2023-03-01T04:36:18;34.07;;;5.27;;
23163;SDS011;31429;42.674;23.350;2023-03-01T04:37:21;4.20;;;3.80;;
23163;SDS011;31429;42.674;23.350;2023-03-01T04:38:22;3.90;;;3.53;;
23163;SDS011;31429;42.674;23.350;2023-03-01T04:39:22;4.63;;;3.70;;
23163;SDS011;31429;42.674;23.350;2023-03-01T04:40:23;3.80;;;3.50;;
23163;SDS011;31429;42.674;23.350;2023-03-01T04:41:24;3.60;;;3.30;;
23163;SDS011;31429;42.674;23.350;2023-03-01T04:42:25;3.75;;;3.45;;
23163;SDS011;31429;42.674;23.350;2023-03-01T04:43:25;3.83;;;3.43;;
23163;SDS011;31429;42.674;23.350;2023-03-01T04:44:26;3.77;;;3.37;;
23163;SDS011;31429;42.674;23.350;2023-03-01T04:45:27;3.73;;;3.43;;
23163;SDS011;31429;42.674;23.350;2023-03-01T04:46:28;3.93;;;3.63;;
23163;SDS011;31429;42.674;23.350;2023-03-01T04:47:30;3.50;;;3.20;;
23163;SDS011;31429;42.674;23.350;2023-03-01T04:48:30;3.53;;;3.22;;
23163;SDS011;31429;42.674;23.350;2023-03-01T04:49:31;4.28;;;3.88;;
23163;SDS011;31429;42.674;23.350;2023-03-01T04:50:32;4.30;;;3.90;;
23163;SDS011;31429;42.674;23.350;2023-03-01T04:51:33;4.33;;;3.70;;
23163;SDS011;31429;42.674;23.350;2023-03-01T04:52:33;4.50;;;4.10;;
23163;SDS011;31429;42.674;23.350;2023-03-01T04:53:34;4.20;;;3.80;;
23163;SDS011;31429;42.674;23.350;2023-03-01T04:54:38;4.18;;;3.65;;
23163;SDS011;31429;42.674;23.350;2023-03-01T04:55:39;5.73;;;3.90;;
23163;SDS011;31429;42.674;23.350;2023-03-01T04:56:40;3.80;;;3.50;;
23163;SDS011;31429;42.674;23.350;2023-03-01T04:57:43;3.50;;;3.20;;
23163;SDS011;31429;42.674;23.350;2023-03-01T04:58:44;3.90;;;3.53;;
23163;SDS011;31429;42.674;23.350;2023-03-01T04:59:45;3.97;;;3.58;;
23163;SDS011;31429;42.674;23.350;2023-03-01T05:00:46;3.53;;;3.23;;
23163;SDS011;31429;42.674;23.350;2023-03-01T05:01:46;4.20;;;3.90;;
23163;SDS011;31429;42.674;23.350;2023-03-01T05:02:50;4.20;;;3.77;;
23163;SDS011;31429;42.674;23.350;2023-03-01T05:03:54;4.10;;;3.80;;
23163;SDS011;31429;42.674;23.350;2023-03-01T05:04:55;4.37;;;3.97;;
23163;SDS011;31429;42.674;23.350;2023-03-01T05:05:58;4.07;;;3.67;;
23163;SDS011;31429;42.674;23.350;2023-03-01T05:06:59;4.57;;;4.18;;
23163;SDS011;31429;42.674;23.350;2023-03-01T05:08:00;4.40;;;3.90;;
23163;SDS011;31429;42.674;23.350;2023-03-01T05:09:05;4.05;;;3.65;;
23163;SDS011;31429;42.674;23.350;2023-03-01T05:10:09;4.53;;;4.05;;
23163;SDS011;31429;42.674;23.350;2023-03-01T05:11:10;4.85;;;3.45;;
23163;SDS011;31429;42.674;23.350;2023-03-01T05:12:11;3.85;;;3.55;;
23163;SDS011;31429;42.674;23.350;2023-03-01T05:13:12;5.73;;;4.07;;
23163;SDS011;31429;42.674;23.350;2023-03-01T05:14:15;4.07;;;3.78;;
23163;SDS011;31429;42.674;23.350;2023-03-01T05:15:15;4.00;;;3.70;;
23163;SDS011;31429;42.674;23.350;2023-03-01T05:16:16;4.43;;;4.03;;
23163;SDS011;31429;42.674;23.350;2023-03-01T05:17:17;8.05;;;4.60;;
23163;SDS011;31429;42.674;23.350;2023-03-01T05:18:19;4.53;;;4.13;;
23163;SDS011;31429;42.674;23.350;2023-03-01T05:19:20;4.72;;;4.32;;
23163;SDS011;31429;42.674;23.350;2023-03-01T05:20:22;4.50;;;4.10;;
23163;SDS011;31429;42.674;23.350;2023-03-01T05:21:23;4.57;;;4.17;;
23163;SDS011;31429;42.674;23.350;2023-03-01T05:22:24;5.73;;;4.23;;
23163;SDS011;31429;42.674;23.350;2023-03-01T05:23:24;4.00;;;3.70;;
23163;SDS011;31429;42.674;23.350;2023-03-01T05:24:25;4.63;;;4.10;;
23163;SDS011;31429;42.674;23.350;2023-03-01T05:25:27;4.68;;;4.28;;
23163;SDS011;31429;42.674;23.350;2023-03-01T05:26:32;4.00;;;3.70;;
23163;SDS011;31429;42.674;23.350;2023-03-01T05:27:33;3.80;;;3.50;;
23163;SDS011;31429;42.674;23.350;2023-03-01T05:28:34;4.28;;;3.88;;
23163;SDS011;31429;42.674;23.350;2023-03-01T05:29:35;4.73;;;3.57;;
23163;SDS011;31429;42.674;23.350;2023-03-01T05:30:36;4.30;;;3.90;;
23163;SDS011;31429;42.674;23.350;2023-03-01T05:31:39;3.70;;;3.40;;
23163;SDS011;31429;42.674;23.350;2023-03-01T05:32:40;3.53;;;3.23;;
23163;SDS011;31429;42.674;23.350;2023-03-01T05:33:44;4.38;;;3.97;;
23163;SDS011;31429;42.674;23.350;2023-03-01T05:34:45;5.72;;;4.55;;
23163;SDS011;31429;42.674;23.350;2023-03-01T05:35:46;6.50;;;5.73;;
23163;SDS011;31429;42.674;23.350;2023-03-01T05:36:48;7.93;;;4.10;;
23163;SDS011;31429;42.674;23.350;2023-03-01T05:37:53;6.57;;;4.10;;
23163;SDS011;31429;42.674;23.350;2023-03-01T05:38:53;4.30;;;3.90;;
23163;SDS011;31429;42.674;23.350;2023-03-01T05:39:54;4.17;;;3.73;;
23163;SDS011;31429;42.674;23.350;2023-03-01T05:40:54;5.20;;;3.60;;
23163;SDS011;31429;42.674;23.350;2023-03-01T05:41:56;3.90;;;3.60;;
23163;SDS011;31429;42.674;23.350;2023-03-01T05:42:58;5.15;;;3.60;;
23163;SDS011;31429;42.674;23.350;2023-03-01T05:43:58;4.10;;;3.57;;
23163;SDS011;31429;42.674;23.350;2023-03-01T05:44:59;3.83;;;3.43;;
23163;SDS011;31429;42.674;23.350;2023-03-01T05:46:00;5.00;;;4.20;;
23163;SDS011;31429;42.674;23.350;2023-03-01T05:47:00;4.37;;;3.80;;
23163;SDS011;31429;42.674;23.350;2023-03-01T05:48:01;6.60;;;4.10;;
23163;SDS011;31429;42.674;23.350;2023-03-01T05:49:03;4.63;;;4.23;;
23163;SDS011;31429;42.674;23.350;2023-03-01T05:50:04;4.93;;;4.20;;
23163;SDS011;31429;42.674;23.350;2023-03-01T05:51:07;4.85;;;4.35;;
23163;SDS011;31429;42.674;23.350;2023-03-01T05:52:08;4.67;;;4.27;;
23163;SDS011;31429;42.674;23.350;2023-03-01T05:53:09;5.53;;;4.50;;
23163;SDS011;31429;42.674;23.350;2023-03-01T05:54:11;4.78;;;4.38;;
23163;SDS011;31429;42.674;23.350;2023-03-01T05:55:12;5.23;;;4.63;;
23163;SDS011;31429;42.674;23.350;2023-03-01T05:56:15;5.25;;;4.72;;
23163;SDS011;31429;42.674;23.350;2023-03-01T05:57:16;6.17;;;5.40;;
23163;SDS011;31429;42.674;23.350;2023-03-01T05:58:17;6.83;;;5.77;;
23163;SDS011;31429;42.674;23.350;2023-03-01T05:59:19;6.82;;;6.22;;
23163;SDS011;31429;42.674;23.350;2023-03-01T06:00:22;6.90;;;6.30;;
23163;SDS011;31429;42.674;23.350;2023-03-01T06:01:23;8.43;;;5.90;;
23163;SDS011;31429;42.674;23.350;2023-03-01T06:02:27;7.63;;;6.40;;
23163;SDS011;31429;42.674;23.350;2023-03-01T06:03:27;11.32;;;6.70;;
23163;SDS011;31429;42.674;23.350;2023-03-01T06:04:29;7.83;;;6.23;;
23163;SDS011;31429;42.674;23.350;2023-03-01T06:05:30;7.15;;;6.20;;
23163;SDS011;31429;42.674;23.350;2023-03-01T06:06:33;8.63;;;6.43;;
23163;SDS011;31429;42.674;23.350;2023-03-01T06:07:34;6.50;;;5.75;;
23163;SDS011;31429;42.674;23.350;2023-03-01T06:08:38;7.70;;;6.55;;
23163;SDS011;31429;42.674;23.350;2023-03-01T06:09:38;8.87;;;6.67;;